createdAt,value
2023-05-17T00:00:02.123Z,99.99
2023-05-17T00:01:02.095Z,99.99
2023-05-17T00:02:02.078Z,99.99
2023-05-17T00:03:02.145Z,99.99
2023-05-17T00:04:02.077Z,99.99
2023-05-17T00:05:02.077Z,99.99
2023-05-17T00:06:02.107Z,99.99
2023-05-17T00:07:02.024Z,99.99
2023-05-17T00:08:02.035Z,99.99
2023-05-17T00:09:02.005Z,99.99
2023-05-17T00:10:02.034Z,99.99
2023-05-17T00:11:01.983Z,99.99
2023-05-17T00:12:02.024Z,99.99
2023-05-17T00:13:01.979Z,99.99
2023-05-17T00:14:01.974Z,99.99
2023-05-17T00:15:01.948Z,99.99
2023-05-17T00:16:01.950Z,99.93
2023-05-17T00:17:01.925Z,99.77
2023-05-17T00:18:02.033Z,99.37
2023-05-17T00:19:01.967Z,99.05
2023-05-17T00:20:01.906Z,98.96
2023-05-17T00:21:01.887Z,98.80
2023-05-17T00:22:01.886Z,98.96
2023-05-17T00:23:01.898Z,98.85
2023-05-17T00:24:01.937Z,99.57
2023-05-17T00:25:01.923Z,99.77
2023-05-17T00:26:01.867Z,99.16
2023-05-17T00:27:01.862Z,99.88
2023-05-17T00:28:01.820Z,99.99
2023-05-17T00:29:01.807Z,99.99
2023-05-17T00:30:01.866Z,99.99
2023-05-17T00:31:01.791Z,99.99
2023-05-17T00:32:01.775Z,99.99
2023-05-17T00:33:01.835Z,98.83
2023-05-17T00:34:01.764Z,99.99
2023-05-17T00:35:01.855Z,99.49
2023-05-17T00:36:01.767Z,99.54
2023-05-17T00:37:01.778Z,99.99
2023-05-17T00:38:01.737Z,99.99
2023-05-17T00:39:01.705Z,99.99
2023-05-17T00:40:01.723Z,99.99
2023-05-17T00:41:01.688Z,99.99
2023-05-17T00:42:01.720Z,99.99
2023-05-17T00:43:01.665Z,99.99
2023-05-17T00:44:01.665Z,99.99
2023-05-17T00:45:01.643Z,99.99
2023-05-17T00:46:01.634Z,99.99
2023-05-17T00:47:01.618Z,99.99
2023-05-17T00:48:01.786Z,99.99
2023-05-17T00:49:01.605Z,99.99
2023-05-17T00:50:01.589Z,99.99
2023-05-17T00:51:01.579Z,99.99
2023-05-17T00:52:01.559Z,99.99
2023-05-17T00:53:01.554Z,99.99
2023-05-17T00:54:01.571Z,99.99
2023-05-17T00:55:01.537Z,99.99
2023-05-17T00:56:01.521Z,99.99
2023-05-17T00:57:01.527Z,99.99
2023-05-17T00:58:01.508Z,99.99
2023-05-17T00:59:01.535Z,99.99
2023-05-17T01:00:01.528Z,99.99
2023-05-17T01:01:01.471Z,99.99
2023-05-17T01:02:01.461Z,99.99
2023-05-17T01:03:01.567Z,99.99
2023-05-17T01:04:01.570Z,99.99
2023-05-17T01:05:01.516Z,99.99
2023-05-17T01:06:01.464Z,99.99
2023-05-17T01:07:01.409Z,99.99
2023-05-17T01:08:01.413Z,99.99
2023-05-17T01:09:01.387Z,99.99
2023-05-17T01:10:01.381Z,99.99
2023-05-17T01:11:01.375Z,99.99
2023-05-17T01:12:01.402Z,99.99
2023-05-17T01:13:01.364Z,99.99
2023-05-17T01:14:01.442Z,99.99
2023-05-17T01:15:01.332Z,99.99
2023-05-17T01:16:01.334Z,99.99
2023-05-17T01:17:01.320Z,99.99
2023-05-17T01:18:01.464Z,99.99
2023-05-17T01:19:01.401Z,99.79
2023-05-17T01:20:01.543Z,99.99
2023-05-17T01:21:01.278Z,99.32
2023-05-17T01:22:01.353Z,99.22
2023-05-17T01:23:01.251Z,99.52
2023-05-17T01:24:01.320Z,99.99
2023-05-17T01:25:01.240Z,99.99
2023-05-17T01:26:01.227Z,99.99
2023-05-17T01:27:01.243Z,99.99
2023-05-17T01:28:01.211Z,99.99
2023-05-17T01:29:01.202Z,99.99
2023-05-17T01:30:01.221Z,99.99
2023-05-17T01:31:01.176Z,99.99
2023-05-17T01:32:01.172Z,99.99
2023-05-17T01:33:01.249Z,99.99
2023-05-17T01:34:01.324Z,99.99
2023-05-17T01:35:01.133Z,99.99
2023-05-17T01:36:01.160Z,99.99
2023-05-17T01:37:01.111Z,99.99
2023-05-17T01:38:01.115Z,99.99
2023-05-17T01:39:01.101Z,99.99
2023-05-17T01:40:01.107Z,99.99
2023-05-17T01:41:01.086Z,99.99
2023-05-17T01:42:01.083Z,99.99
2023-05-17T01:43:01.046Z,99.99
2023-05-17T01:44:01.060Z,99.99
2023-05-17T01:45:01.020Z,99.99
2023-05-17T01:46:01.018Z,99.99
2023-05-17T01:47:01.011Z,99.99
2023-05-17T01:48:01.277Z,99.99
2023-05-17T01:49:01.059Z,99.99
2023-05-17T01:50:00.975Z,99.99
2023-05-17T01:51:00.964Z,99.99
2023-05-17T01:52:00.953Z,99.99
2023-05-17T01:53:01.011Z,99.99
2023-05-17T01:54:00.966Z,99.99
2023-05-17T01:55:00.886Z,99.99
2023-05-17T01:56:01.124Z,99.99
2023-05-17T01:57:00.900Z,99.99
2023-05-17T01:58:00.900Z,99.99
2023-05-17T01:59:00.889Z,99.99
2023-05-17T02:00:00.923Z,99.99
2023-05-17T02:01:00.859Z,99.99
2023-05-17T02:02:00.856Z,99.99
2023-05-17T02:03:00.868Z,99.99
2023-05-17T02:04:00.874Z,99.99
2023-05-17T02:05:00.865Z,99.99
2023-05-17T02:06:00.843Z,99.99
2023-05-17T02:07:00.796Z,99.99
2023-05-17T02:08:00.866Z,99.99
2023-05-17T02:09:00.757Z,99.99
2023-05-17T02:10:00.730Z,99.99
2023-05-17T02:11:00.727Z,99.99
2023-05-17T02:12:00.804Z,99.99
2023-05-17T02:13:00.690Z,99.99
2023-05-17T02:14:00.688Z,99.99
2023-05-17T02:15:00.668Z,99.99
2023-05-17T02:16:00.665Z,99.99
2023-05-17T02:17:00.655Z,99.99
2023-05-17T02:18:00.756Z,99.99
2023-05-17T02:19:00.667Z,99.99
2023-05-17T02:20:00.644Z,99.99
2023-05-17T02:21:00.617Z,99.99
2023-05-17T02:22:00.616Z,99.99
2023-05-17T02:23:00.595Z,99.99
2023-05-17T02:24:00.630Z,99.99
2023-05-17T02:25:00.572Z,99.99
2023-05-17T02:26:00.569Z,99.99
2023-05-17T02:27:00.559Z,99.99
2023-05-17T02:28:00.671Z,99.99
2023-05-17T02:29:00.536Z,99.99
2023-05-17T02:30:00.609Z,99.99
2023-05-17T02:31:00.515Z,99.99
2023-05-17T02:32:00.514Z,99.99
2023-05-17T02:33:00.601Z,99.99
2023-05-17T02:34:00.661Z,99.99
2023-05-17T02:35:00.492Z,99.99
2023-05-17T02:36:00.508Z,99.99
2023-05-17T02:37:00.442Z,99.99
2023-05-17T02:38:00.444Z,99.99
2023-05-17T02:39:00.420Z,99.99
2023-05-17T02:40:00.417Z,99.99
2023-05-17T02:41:00.413Z,99.99
2023-05-17T02:42:00.691Z,99.99
2023-05-17T02:43:00.407Z,99.99
2023-05-17T02:44:00.381Z,99.99
2023-05-17T02:45:00.372Z,99.99
2023-05-17T02:46:00.357Z,99.99
2023-05-17T02:47:00.361Z,99.99
2023-05-17T02:48:00.411Z,99.99
2023-05-17T02:49:00.331Z,99.99
2023-05-17T02:50:00.320Z,99.99
2023-05-17T02:51:00.309Z,99.99
2023-05-17T02:52:00.288Z,99.99
2023-05-17T02:53:00.283Z,99.99
2023-05-17T02:54:00.305Z,99.99
2023-05-17T02:55:00.278Z,99.99
2023-05-17T02:56:00.247Z,99.99
2023-05-17T02:57:00.245Z,99.99
2023-05-17T02:58:00.227Z,99.99
2023-05-17T02:59:00.225Z,99.96
2023-05-17T03:00:00.277Z,99.76
2023-05-17T03:01:00.201Z,99.65
2023-05-17T03:02:00.188Z,99.03
2023-05-17T03:03:00.256Z,99.55
2023-05-17T03:04:00.319Z,99.99
2023-05-17T03:05:00.158Z,99.99
2023-05-17T03:06:00.173Z,99.99
2023-05-17T03:07:00.142Z,99.99
2023-05-17T03:08:00.141Z,99.99
2023-05-17T03:09:00.140Z,99.99
2023-05-17T03:10:00.249Z,99.99
2023-05-17T03:11:00.114Z,99.99
2023-05-17T03:12:00.133Z,99.99
2023-05-17T03:13:00.095Z,99.99
2023-05-17T03:14:00.076Z,99.99
2023-05-17T03:15:00.072Z,99.99
2023-05-17T03:16:00.073Z,99.99
2023-05-17T03:17:00.051Z,99.99
2023-05-17T03:18:00.192Z,99.99
2023-05-17T03:19:00.205Z,99.99
2023-05-17T03:20:00.035Z,99.99
2023-05-17T03:21:00.016Z,99.99
2023-05-17T03:22:00.005Z,99.99
2023-05-17T03:22:59.987Z,99.99
2023-05-17T03:24:00.002Z,99.99
2023-05-17T03:24:59.971Z,99.99
2023-05-17T03:26:00.110Z,99.99
2023-05-17T03:27:00.289Z,99.99
2023-05-17T03:28:01.223Z,99.99
2023-05-17T03:28:59.950Z,99.99
2023-05-17T03:29:59.967Z,99.99
2023-05-17T03:31:00.006Z,99.99
2023-05-17T03:31:59.910Z,99.99
2023-05-17T03:32:59.960Z,99.99
2023-05-17T03:34:00.007Z,99.99
2023-05-17T03:34:59.880Z,99.99
2023-05-17T03:35:59.895Z,99.99
2023-05-17T03:36:59.844Z,99.99
2023-05-17T03:37:59.842Z,99.99
2023-05-17T03:38:59.832Z,99.99
2023-05-17T03:40:00.768Z,99.99
2023-05-17T03:40:59.813Z,99.99
2023-05-17T03:41:59.827Z,99.99
2023-05-17T03:42:59.784Z,99.28
2023-05-17T03:43:59.841Z,99.80
2023-05-17T03:44:59.766Z,99.99
2023-05-17T03:45:59.750Z,99.99
2023-05-17T03:46:59.745Z,99.34
2023-05-17T03:47:59.946Z,98.66
2023-05-17T03:48:59.761Z,99.44
2023-05-17T03:49:59.715Z,99.55
2023-05-17T03:50:59.713Z,99.03
2023-05-17T03:51:59.691Z,99.34
2023-05-17T03:52:59.688Z,98.93
2023-05-17T03:53:59.706Z,99.13
2023-05-17T03:54:59.665Z,98.72
2023-05-17T03:55:59.666Z,99.13
2023-05-17T03:56:59.648Z,98.51
2023-05-17T03:57:59.643Z,98.10
2023-05-17T03:58:59.645Z,97.89
2023-05-17T03:59:59.658Z,97.58
2023-05-17T04:00:59.626Z,97.89
2023-05-17T04:01:59.587Z,98.10
2023-05-17T04:02:59.659Z,99.13
2023-05-17T04:03:59.600Z,98.51
2023-05-17T04:05:00.378Z,98.47
2023-05-17T04:05:59.616Z,97.02
2023-05-17T04:06:59.557Z,97.95
2023-05-17T04:07:59.542Z,97.53
2023-05-17T04:08:59.542Z,97.64
2023-05-17T04:09:59.548Z,97.27
2023-05-17T04:10:59.521Z,97.27
2023-05-17T04:11:59.528Z,98.20
2023-05-17T04:12:59.506Z,97.64
2023-05-17T04:13:59.491Z,97.58
2023-05-17T04:14:59.490Z,97.74
2023-05-17T04:15:59.461Z,97.85
2023-05-17T04:16:59.460Z,97.02
2023-05-17T04:17:59.606Z,97.12
2023-05-17T04:18:59.510Z,98.05
2023-05-17T04:19:59.418Z,97.22
2023-05-17T04:20:59.436Z,97.53
2023-05-17T04:21:59.405Z,98.68
2023-05-17T04:22:59.401Z,98.88
2023-05-17T04:23:59.423Z,98.68
2023-05-17T04:24:59.377Z,97.12
2023-05-17T04:25:59.370Z,96.08
2023-05-17T04:27:00.746Z,96.08
2023-05-17T04:27:59.341Z,96.08
2023-05-17T04:28:59.334Z,96.86
2023-05-17T04:29:59.356Z,96.14
2023-05-17T04:30:59.346Z,96.24
2023-05-17T04:31:59.312Z,97.07
2023-05-17T04:32:59.380Z,97.69
2023-05-17T04:33:59.330Z,97.28
2023-05-17T04:34:59.264Z,98.63
2023-05-17T04:35:59.298Z,96.24
2023-05-17T04:36:59.243Z,95.93
2023-05-17T04:37:59.242Z,96.14
2023-05-17T04:38:59.222Z,95.72
2023-05-17T04:39:59.239Z,96.34
2023-05-17T04:40:59.204Z,97.07
2023-05-17T04:41:59.232Z,97.38
2023-05-17T04:42:59.186Z,97.59
2023-05-17T04:43:59.172Z,96.66
2023-05-17T04:44:59.173Z,96.97
2023-05-17T04:45:59.158Z,95.93
2023-05-17T04:46:59.156Z,95.20
2023-05-17T04:47:59.258Z,95.83
2023-05-17T04:48:59.225Z,95.72
2023-05-17T04:49:59.110Z,95.72
2023-05-17T04:50:59.112Z,94.06
2023-05-17T04:51:59.082Z,94.68
2023-05-17T04:52:59.089Z,95.51
2023-05-17T04:53:59.087Z,95.41
2023-05-17T04:54:59.060Z,94.37
2023-05-17T04:55:59.161Z,95.00
2023-05-17T04:56:59.073Z,94.58
2023-05-17T04:57:59.040Z,94.48
2023-05-17T04:58:59.024Z,95.00
2023-05-17T04:59:59.033Z,95.72
2023-05-17T05:00:59.025Z,95.93
2023-05-17T05:01:59.014Z,95.26
2023-05-17T05:02:59.008Z,95.16
2023-05-17T05:03:59.140Z,95.16
2023-05-17T05:04:59.008Z,94.95
2023-05-17T05:05:58.978Z,94.85
2023-05-17T05:06:58.956Z,94.43
2023-05-17T05:07:58.941Z,95.89
2023-05-17T05:08:58.939Z,95.68
2023-05-17T05:09:58.903Z,93.81
2023-05-17T05:10:58.907Z,94.74
2023-05-17T05:11:58.935Z,93.50
2023-05-17T05:12:58.899Z,94.64
2023-05-17T05:13:58.884Z,95.26
2023-05-17T05:15:00.819Z,95.37
2023-05-17T05:15:58.850Z,95.43
2023-05-17T05:16:58.845Z,94.29
2023-05-17T05:17:58.922Z,94.33
2023-05-17T05:18:59.021Z,93.19
2023-05-17T05:19:58.969Z,94.64
2023-05-17T05:20:58.802Z,95.26
2023-05-17T05:21:58.791Z,94.74
2023-05-17T05:22:58.768Z,94.95
2023-05-17T05:23:58.785Z,95.74
2023-05-17T05:24:58.762Z,93.66
2023-05-17T05:25:58.751Z,92.98
2023-05-17T05:26:58.733Z,93.08
2023-05-17T05:27:58.724Z,92.16
2023-05-17T05:28:58.714Z,91.74
2023-05-17T05:29:58.730Z,92.78
2023-05-17T05:30:58.693Z,93.56
2023-05-17T05:31:58.683Z,93.66
2023-05-17T05:32:58.770Z,94.29
2023-05-17T05:33:58.721Z,93.21
2023-05-17T05:34:58.655Z,93.31
2023-05-17T05:35:58.775Z,93.10
2023-05-17T05:36:58.631Z,92.53
2023-05-17T05:37:58.618Z,94.76
2023-05-17T05:38:58.613Z,93.83
2023-05-17T05:39:58.593Z,93.62
2023-05-17T05:40:58.587Z,92.59
2023-05-17T05:41:58.593Z,93.21
2023-05-17T05:42:58.615Z,94.04
2023-05-17T05:43:58.551Z,93.83
2023-05-17T05:44:58.557Z,92.69
2023-05-17T05:45:58.543Z,93.31
2023-05-17T05:46:58.569Z,93.21
2023-05-17T05:47:58.589Z,93.52
2023-05-17T05:48:58.611Z,93.35
2023-05-17T05:49:58.505Z,93.56
2023-05-17T05:50:58.490Z,91.60
2023-05-17T05:51:58.470Z,92.63
2023-05-17T05:53:10.441Z,92.43
2023-05-17T05:53:59.476Z,90.04
2023-05-17T05:54:58.436Z,91.18
2023-05-17T05:55:58.434Z,91.08
2023-05-17T05:56:58.435Z,91.91
2023-05-17T05:57:58.421Z,92.38
2023-05-17T05:58:58.446Z,90.93
2023-05-17T05:59:58.410Z,90.25
2023-05-17T06:00:58.394Z,91.08
2023-05-17T06:01:58.377Z,91.28
2023-05-17T06:02:58.390Z,91.80
2023-05-17T06:03:58.357Z,91.80
2023-05-17T06:04:58.356Z,93.10
2023-05-17T06:05:58.417Z,91.39
2023-05-17T06:06:58.438Z,89.62
2023-05-17T06:07:58.317Z,91.18
2023-05-17T06:08:59.644Z,90.66
2023-05-17T06:09:58.293Z,92.01
2023-05-17T06:10:58.304Z,90.87
2023-05-17T06:11:58.306Z,90.04
2023-05-17T06:12:58.301Z,90.87
2023-05-17T06:13:58.358Z,91.18
2023-05-17T06:14:58.247Z,90.35
2023-05-17T06:15:58.234Z,90.56
2023-05-17T06:16:58.231Z,90.66
2023-05-17T06:17:58.320Z,91.70
2023-05-17T06:18:58.307Z,91.70
2023-05-17T06:19:58.315Z,91.60
2023-05-17T06:20:58.190Z,92.53
2023-05-17T06:21:58.189Z,91.28
2023-05-17T06:22:58.290Z,91.08
2023-05-17T06:23:58.184Z,91.49
2023-05-17T06:24:58.149Z,90.77
2023-05-17T06:25:58.146Z,91.39
2023-05-17T06:26:58.132Z,91.49
2023-05-17T06:27:58.109Z,91.28
2023-05-17T06:28:58.108Z,90.87
2023-05-17T06:29:58.122Z,92.32
2023-05-17T06:30:58.092Z,92.01
2023-05-17T06:31:58.100Z,90.60
2023-05-17T06:32:58.200Z,91.33
2023-05-17T06:33:58.117Z,91.43
2023-05-17T06:34:58.027Z,92.16
2023-05-17T06:36:58.978Z,92.22
2023-05-17T06:37:58.018Z,92.53
2023-05-17T06:38:57.994Z,92.68
2023-05-17T06:40:04.148Z,90.91
2023-05-17T06:40:59.019Z,91.85
2023-05-17T06:41:57.966Z,91.74
2023-05-17T06:42:57.957Z,91.53
2023-05-17T06:43:57.965Z,91.22
2023-05-17T06:44:57.927Z,90.29
2023-05-17T06:45:57.928Z,90.81
2023-05-17T06:46:57.942Z,89.98
2023-05-17T06:47:58.034Z,91.53
2023-05-17T06:48:58.042Z,90.60
2023-05-17T06:49:57.877Z,90.70
2023-05-17T06:50:57.868Z,90.81
2023-05-17T06:51:57.859Z,91.85
2023-05-17T06:52:57.872Z,92.32
2023-05-17T06:53:57.844Z,90.66
2023-05-17T06:54:57.827Z,89.73
2023-05-17T06:55:57.829Z,90.04
2023-05-17T06:56:57.810Z,90.45
2023-05-17T06:57:57.807Z,90.25
2023-05-17T06:58:57.807Z,90.77
2023-05-17T06:59:57.774Z,90.04
2023-05-17T07:00:57.805Z,91.08
2023-05-17T07:01:57.758Z,90.87
2023-05-17T07:02:57.823Z,91.39
2023-05-17T07:03:57.885Z,91.18
2023-05-17T07:04:57.792Z,92.43
2023-05-17T07:05:57.723Z,92.63
2023-05-17T07:06:58.666Z,92.11
2023-05-17T07:07:57.714Z,92.32
2023-05-17T07:08:57.721Z,91.91
2023-05-17T07:09:57.679Z,91.60
2023-05-17T07:10:57.697Z,91.60
2023-05-17T07:11:57.664Z,91.49
2023-05-17T07:12:57.709Z,91.60
2023-05-17T07:13:57.641Z,91.08
2023-05-17T07:14:57.631Z,90.87
2023-05-17T07:15:57.623Z,90.35
2023-05-17T07:16:57.633Z,90.77
2023-05-17T07:17:57.752Z,90.87
2023-05-17T07:18:57.656Z,90.97
2023-05-17T07:19:57.873Z,90.87
2023-05-17T07:20:57.576Z,90.14
2023-05-17T07:21:57.564Z,90.56
2023-05-17T07:22:57.576Z,92.84
2023-05-17T07:23:57.542Z,91.03
2023-05-17T07:24:57.524Z,91.03
2023-05-17T07:25:57.534Z,91.14
2023-05-17T07:26:57.528Z,90.20
2023-05-17T07:27:57.497Z,90.83
2023-05-17T07:28:57.537Z,91.14
2023-05-17T07:29:57.488Z,90.10
2023-05-17T07:30:57.472Z,89.79
2023-05-17T07:31:57.473Z,90.72
2023-05-17T07:32:57.467Z,89.69
2023-05-17T07:33:57.460Z,89.38
2023-05-17T07:34:57.437Z,90.41
2023-05-17T07:35:57.423Z,89.79
2023-05-17T07:36:57.409Z,90.72
2023-05-17T07:37:57.392Z,90.26
2023-05-17T07:38:57.376Z,89.44
2023-05-17T07:39:57.398Z,90.78
2023-05-17T07:40:57.380Z,90.06
2023-05-17T07:41:57.356Z,90.99
2023-05-17T07:42:57.339Z,90.99
2023-05-17T07:43:57.328Z,91.82
2023-05-17T07:44:57.321Z,91.09
2023-05-17T07:45:57.316Z,90.95
2023-05-17T07:46:57.363Z,91.20
2023-05-17T07:47:57.395Z,92.13
2023-05-17T07:48:58.921Z,92.34
2023-05-17T07:49:57.274Z,91.41
2023-05-17T07:50:57.263Z,90.99
2023-05-17T07:51:57.260Z,92.34
2023-05-17T07:52:57.259Z,92.65
2023-05-17T07:53:57.244Z,92.49
2023-05-17T07:54:57.220Z,91.86
2023-05-17T07:55:57.216Z,92.90
2023-05-17T07:56:57.209Z,93.41
2023-05-17T07:57:57.198Z,92.59
2023-05-17T07:58:57.218Z,92.69
2023-05-17T07:59:57.172Z,94.24
2023-05-17T08:00:57.340Z,93.00
2023-05-17T08:01:57.161Z,91.97
2023-05-17T08:02:57.193Z,90.62
2023-05-17T08:03:57.141Z,91.45
2023-05-17T08:04:57.215Z,91.55
2023-05-17T08:05:57.167Z,91.24
2023-05-17T08:06:57.126Z,92.69
2023-05-17T08:07:57.108Z,92.69
2023-05-17T08:08:57.093Z,90.20
2023-05-17T08:09:57.267Z,90.62
2023-05-17T08:10:57.996Z,90.99
2023-05-17T08:11:57.078Z,92.34
2023-05-17T08:12:57.041Z,89.13
2023-05-17T08:13:57.051Z,89.34
2023-05-17T08:14:57.023Z,89.44
2023-05-17T08:16:05.172Z,90.26
2023-05-17T08:16:58.053Z,88.82
2023-05-17T08:17:57.080Z,88.71
2023-05-17T08:18:57.094Z,87.68
2023-05-17T08:19:57.097Z,88.40
2023-05-17T08:20:56.980Z,88.92
2023-05-17T08:21:56.961Z,86.85
2023-05-17T08:22:56.980Z,88.09
2023-05-17T08:23:56.940Z,87.43
2023-05-17T08:24:56.925Z,85.99
2023-05-17T08:25:56.910Z,87.43
2023-05-17T08:26:56.922Z,86.50
2023-05-17T08:27:56.917Z,85.99
2023-05-17T08:28:56.939Z,87.02
2023-05-17T08:29:56.879Z,86.40
2023-05-17T08:30:56.864Z,86.81
2023-05-17T08:31:56.846Z,85.78
2023-05-17T08:32:57.064Z,85.26
2023-05-17T08:33:56.873Z,85.63
2023-05-17T08:34:56.842Z,85.74
2023-05-17T08:35:56.809Z,85.42
2023-05-17T08:36:56.837Z,85.74
2023-05-17T08:37:56.790Z,86.52
2023-05-17T08:38:56.768Z,87.15
2023-05-17T08:39:56.810Z,87.56
2023-05-17T08:40:56.832Z,86.01
2023-05-17T08:41:56.746Z,87.00
2023-05-17T08:42:56.744Z,86.49
2023-05-17T08:43:56.724Z,87.21
2023-05-17T08:44:56.719Z,86.69
2023-05-17T08:45:56.701Z,84.83
2023-05-17T08:46:56.732Z,85.76
2023-05-17T08:47:56.744Z,84.11
2023-05-17T08:48:56.705Z,86.38
2023-05-17T08:49:56.659Z,84.28
2023-05-17T08:50:56.732Z,84.69
2023-05-17T08:51:56.643Z,86.34
2023-05-17T08:52:56.659Z,85.72
2023-05-17T08:53:56.712Z,84.69
2023-05-17T08:54:56.633Z,85.21
2023-05-17T08:55:56.607Z,85.52
2023-05-17T08:56:56.594Z,84.59
2023-05-17T08:57:56.584Z,86.44
2023-05-17T08:58:57.978Z,87.02
2023-05-17T08:59:56.560Z,87.02
2023-05-17T09:00:56.548Z,86.82
2023-05-17T09:01:56.541Z,86.20
2023-05-17T09:02:56.639Z,85.85
2023-05-17T09:03:56.556Z,87.19
2023-05-17T09:04:56.674Z,83.99
2023-05-17T09:05:56.557Z,86.78
2023-05-17T09:06:56.495Z,86.57
2023-05-17T09:07:56.486Z,86.32
2023-05-17T09:08:56.478Z,83.64
2023-05-17T09:09:56.489Z,82.51
2023-05-17T09:10:56.477Z,85.19
2023-05-17T09:11:56.481Z,84.36
2023-05-17T09:12:56.441Z,84.01
2023-05-17T09:13:56.428Z,83.77
2023-05-17T09:14:56.416Z,85.01
2023-05-17T09:15:56.407Z,83.84
2023-05-17T09:16:56.415Z,83.59
2023-05-17T09:17:56.473Z,84.62
2023-05-17T09:18:56.447Z,83.14
2023-05-17T09:19:56.484Z,83.00
2023-05-17T09:20:56.347Z,84.23
2023-05-17T09:21:56.379Z,83.41
2023-05-17T09:22:57.106Z,83.17
2023-05-17T09:24:56.314Z,80.60
2023-05-17T09:25:56.308Z,81.32
2023-05-17T09:26:56.293Z,83.03
2023-05-17T09:27:56.286Z,81.90
2023-05-17T09:28:56.298Z,83.33
2023-05-17T09:29:56.262Z,83.54
2023-05-17T09:30:56.258Z,81.07
2023-05-17T09:31:56.241Z,79.26
2023-05-17T09:32:56.224Z,79.05
2023-05-17T09:33:56.227Z,80.91
2023-05-17T09:34:56.242Z,80.49
2023-05-17T09:35:56.225Z,79.77
2023-05-17T09:36:56.186Z,80.05
2023-05-17T09:37:56.181Z,78.61
2023-05-17T09:38:56.165Z,81.55
2023-05-17T09:39:56.150Z,80.52
2023-05-17T09:40:56.162Z,78.16
2023-05-17T09:41:56.141Z,76.42
2023-05-17T09:42:56.129Z,72.72
2023-05-17T09:43:56.119Z,74.50
2023-05-17T09:44:56.109Z,72.65
2023-05-17T09:45:56.115Z,73.98
2023-05-17T09:46:56.100Z,76.04
2023-05-17T09:47:56.202Z,74.08
2023-05-17T09:48:56.135Z,74.98
2023-05-17T09:49:56.053Z,72.82
2023-05-17T09:50:56.038Z,74.26
2023-05-17T09:51:56.031Z,72.92
2023-05-17T09:52:56.059Z,72.51
2023-05-17T09:53:56.008Z,71.66
2023-05-17T09:54:56.010Z,72.99
2023-05-17T09:55:55.991Z,73.57
2023-05-17T09:56:55.984Z,71.21
2023-05-17T09:57:55.976Z,71.62
2023-05-17T09:58:55.990Z,73.27
2023-05-17T09:59:55.952Z,70.29
2023-05-17T10:00:55.948Z,70.50
2023-05-17T10:01:55.938Z,70.18
2023-05-17T10:02:56.027Z,70.77
2023-05-17T10:03:55.955Z,70.46
2023-05-17T10:04:55.965Z,70.02
2023-05-17T10:05:55.905Z,69.89
2023-05-17T10:06:55.887Z,69.17
2023-05-17T10:07:55.884Z,71.11
2023-05-17T10:08:55.866Z,68.73
2023-05-17T10:09:55.856Z,70.67
2023-05-17T10:10:55.891Z,69.82
2023-05-17T10:11:55.837Z,70.50
2023-05-17T10:12:55.833Z,67.94
2023-05-17T10:13:55.828Z,69.79
2023-05-17T10:14:55.996Z,66.92
2023-05-17T10:15:55.797Z,67.43
2023-05-17T10:16:55.823Z,69.10
2023-05-17T10:17:55.798Z,69.82
2023-05-17T10:18:55.811Z,68.69
2023-05-17T10:19:55.916Z,71.56
2023-05-17T10:20:55.742Z,70.94
2023-05-17T10:21:56.076Z,69.75
2023-05-17T10:22:57.919Z,69.37
2023-05-17T10:23:55.707Z,70.91
2023-05-17T10:24:55.700Z,69.57
2023-05-17T10:25:55.688Z,68.45
2023-05-17T10:26:55.692Z,70.09
2023-05-17T10:27:55.683Z,70.67
2023-05-17T10:28:55.689Z,71.49
2023-05-17T10:29:55.645Z,70.84
2023-05-17T10:30:55.677Z,68.49
2023-05-17T10:31:55.630Z,70.94
2023-05-17T10:32:55.733Z,72.96
2023-05-17T10:33:55.637Z,71.83
2023-05-17T10:35:09.307Z,72.72
2023-05-17T10:35:56.583Z,70.64
2023-05-17T10:36:55.566Z,72.38
2023-05-17T10:37:55.570Z,71.66
2023-05-17T10:38:55.560Z,71.63
2023-05-17T10:39:55.542Z,70.61
2023-05-17T10:40:55.553Z,68.29
2023-05-17T10:42:06.783Z,69.31
2023-05-17T10:42:56.506Z,70.95
2023-05-17T10:43:55.520Z,73.33
2023-05-17T10:44:55.487Z,67.48
2023-05-17T10:45:55.491Z,67.44
2023-05-17T10:46:55.491Z,66.69
2023-05-17T10:47:55.510Z,71.15
2023-05-17T10:48:55.511Z,71.12
2023-05-17T10:49:55.437Z,67.58
2023-05-17T10:51:56.465Z,67.24
2023-05-17T10:52:55.425Z,66.31
2023-05-17T10:53:55.406Z,64.68
2023-05-17T10:54:57.113Z,63.93
2023-05-17T10:55:55.384Z,69.15
2023-05-17T10:56:55.361Z,65.47
2023-05-17T10:57:55.421Z,64.04
2023-05-17T10:58:55.338Z,68.02
2023-05-17T10:59:55.452Z,63.56
2023-05-17T11:00:56.088Z,67.13
2023-05-17T11:01:55.328Z,66.42
2023-05-17T11:02:55.391Z,69.38
2023-05-17T11:03:55.324Z,68.87
2023-05-17T11:04:55.361Z,67.24
2023-05-17T11:05:55.770Z,65.19
2023-05-17T11:06:55.308Z,65.60
2023-05-17T11:07:55.249Z,67.34
2023-05-17T11:08:55.254Z,65.37
2023-05-17T11:09:55.265Z,63.02
2023-05-17T11:10:55.223Z,64.34
2023-05-17T11:11:55.206Z,64.22
2023-05-17T11:12:55.214Z,65.64
2023-05-17T11:13:55.193Z,61.53
2023-05-17T11:14:55.174Z,60.53
2023-05-17T11:15:55.358Z,62.17
2023-05-17T11:16:55.248Z,62.58
2023-05-17T11:17:55.166Z,63.49
2023-05-17T11:18:55.273Z,62.07
2023-05-17T11:19:55.374Z,63.19
2023-05-17T11:20:55.254Z,63.37
2023-05-17T11:21:55.134Z,65.89
2023-05-17T11:22:55.100Z,60.69
2023-05-17T11:23:55.095Z,61.30
2023-05-17T11:24:55.081Z,60.69
2023-05-17T11:25:55.150Z,61.80
2023-05-17T11:26:55.087Z,60.38
2023-05-17T11:27:55.069Z,59.18
2023-05-17T11:28:55.037Z,62.04
2023-05-17T11:29:55.046Z,60.92
2023-05-17T11:30:55.018Z,61.63
2023-05-17T11:31:55.004Z,63.70
2023-05-17T11:32:55.037Z,59.92
2023-05-17T11:33:55.026Z,62.68
2023-05-17T11:34:54.990Z,59.82
2023-05-17T11:35:54.985Z,57.20
2023-05-17T11:36:54.981Z,57.53
2023-05-17T11:37:54.942Z,59.67
2023-05-17T11:39:01.511Z,58.96
2023-05-17T11:39:56.583Z,59.88
2023-05-17T11:40:54.914Z,60.57
2023-05-17T11:41:54.910Z,57.63
2023-05-17T11:42:54.889Z,57.63
2023-05-17T11:43:54.872Z,59.78
2023-05-17T11:44:54.863Z,60.08
2023-05-17T11:45:54.888Z,59.64
2023-05-17T11:46:54.850Z,58.32
2023-05-17T11:47:54.977Z,59.75
2023-05-17T11:48:54.922Z,60.74
2023-05-17T11:49:56.378Z,56.89
2023-05-17T11:50:54.817Z,59.62
2023-05-17T11:51:54.821Z,58.60
2023-05-17T11:52:54.781Z,61.22
2023-05-17T11:53:54.785Z,59.89
2023-05-17T11:54:54.759Z,59.89
2023-05-17T11:55:54.756Z,60.21
2023-05-17T11:56:54.745Z,63.34
2023-05-17T11:57:54.772Z,61.50
2023-05-17T11:58:54.789Z,61.32
2023-05-17T11:59:54.737Z,56.76
2023-05-17T12:00:54.718Z,60.74
2023-05-17T12:01:54.696Z,60.44
2023-05-17T12:02:54.698Z,59.23
2023-05-17T12:03:54.706Z,59.34
2023-05-17T12:04:54.699Z,59.91
2023-05-17T12:05:54.678Z,64.57
2023-05-17T12:06:54.709Z,67.49
2023-05-17T12:07:54.709Z,66.30
2023-05-17T12:08:54.630Z,68.96
2023-05-17T12:09:54.636Z,70.77
2023-05-17T12:10:54.592Z,66.37
2023-05-17T12:11:54.599Z,69.10
2023-05-17T12:12:54.588Z,69.89
2023-05-17T12:13:54.579Z,69.45
2023-05-17T12:14:54.559Z,67.19
2023-05-17T12:15:54.585Z,68.29
2023-05-17T12:16:54.540Z,66.75
2023-05-17T12:17:54.648Z,67.03
2023-05-17T12:18:54.736Z,63.29
2023-05-17T12:19:54.875Z,63.85
2023-05-17T12:20:54.498Z,64.47
2023-05-17T12:21:54.514Z,54.18
2023-05-17T12:22:54.482Z,57.18
2023-05-17T12:23:54.459Z,54.82
2023-05-17T12:24:54.551Z,53.19
2023-05-17T12:25:54.439Z,56.27
2023-05-17T12:26:54.497Z,55.46
2023-05-17T12:27:54.572Z,53.72
2023-05-17T12:28:54.411Z,52.17
2023-05-17T12:29:54.405Z,54.03
2023-05-17T12:30:54.398Z,53.92
2023-05-17T12:31:54.377Z,55.15
2023-05-17T12:32:54.401Z,54.67
2023-05-17T12:33:54.443Z,53.42
2023-05-17T12:34:54.361Z,55.66
2023-05-17T12:35:54.345Z,53.01
2023-05-17T12:36:54.318Z,52.70
2023-05-17T12:37:54.312Z,51.89
2023-05-17T12:38:54.302Z,51.71
2023-05-17T12:39:54.314Z,54.13
2023-05-17T12:40:54.284Z,52.70
2023-05-17T12:41:54.281Z,53.62
2023-05-17T12:42:54.264Z,52.88
2023-05-17T12:44:06.060Z,52.58
2023-05-17T12:44:55.260Z,54.90
2023-05-17T12:45:54.222Z,55.07
2023-05-17T12:46:54.326Z,52.68
2023-05-17T12:47:54.248Z,48.66
2023-05-17T12:48:54.354Z,54.77
2023-05-17T12:49:54.192Z,50.92
2023-05-17T12:50:54.213Z,51.13
2023-05-17T12:51:54.164Z,51.76
2023-05-17T12:52:54.173Z,52.09
2023-05-17T12:53:54.148Z,51.48
2023-05-17T12:54:54.148Z,53.31